sensor_id;sensor_type;location;lat;lon;timestamp;pressure;altitude;pressure_sealevel;temperature;humidity
36190;BME280;22232;50.914;13.858;2023-06-10T00:00:00;97634.13;;;16.25;100.00
36190;BME280;22232;50.914;13.858;2023-06-10T00:02:38;97631.97;;;16.22;100.00
36190;BME280;22232;50.914;13.858;2023-06-10T00:05:07;97636.00;;;16.24;100.00
36190;BME280;22232;50.914;13.858;2023-06-10T00:07:36;97633.56;;;16.28;100.00
36190;BME280;22232;50.914;13.858;2023-06-10T00:10:08;97640.84;;;16.33;100.00
36190;BME280;22232;50.914;13.858;2023-06-10T00:12:38;97640.84;;;16.33;100.00
36190;BME280;22232;50.914;13.858;2023-06-10T00:15:06;97637.06;;;16.34;100.00
36190;BME280;22232;50.914;13.858;2023-06-10T00:17:35;97638.94;;;16.38;100.00
36190;BME280;22232;50.914;13.858;2023-06-10T00:20:08;97637.88;;;16.44;100.00
36190;BME280;22232;50.914;13.858;2023-06-10T00:22:38;97642.41;;;16.49;100.00
36190;BME280;22232;50.914;13.858;2023-06-10T00:25:07;97651.84;;;16.51;100.00
36190;BME280;22232;50.914;13.858;2023-06-10T00:27:35;97666.09;;;16.52;100.00
36190;BME280;22232;50.914;13.858;2023-06-10T00:30:04;97652.94;;;16.50;100.00
36190;BME280;22232;50.914;13.858;2023-06-10T00:32:35;97658.84;;;16.52;100.00
36190;BME280;22232;50.914;13.858;2023-06-10T00:35:06;97663.41;;;16.52;100.00
36190;BME280;22232;50.914;13.858;2023-06-10T00:37:35;97665.84;;;16.48;100.00
36190;BME280;22232;50.914;13.858;2023-06-10T00:40:04;97668.28;;;16.45;100.00
36190;BME280;22232;50.914;13.858;2023-06-10T00:42:32;97674.75;;;16.39;100.00
36190;BME280;22232;50.914;13.858;2023-06-10T00:44:59;97669.38;;;16.39;100.00
36190;BME280;22232;50.914;13.858;2023-06-10T00:47:28;97663.97;;;16.34;100.00
36190;BME280;22232;50.914;13.858;2023-06-10T00:49:56;97673.13;;;16.33;100.00
36190;BME280;22232;50.914;13.858;2023-06-10T00:52:27;97673.41;;;16.31;100.00
36190;BME280;22232;50.914;13.858;2023-06-10T00:54:55;97680.41;;;16.32;100.00
36190;BME280;22232;50.914;13.858;2023-06-10T00:57:23;97676.09;;;16.36;100.00
36190;BME280;22232;50.914;13.858;2023-06-10T00:59:51;97687.13;;;16.40;100.00
36190;BME280;22232;50.914;13.858;2023-06-10T01:02:18;97684.44;;;16.50;100.00
36190;BME280;22232;50.914;13.858;2023-06-10T01:04:46;97683.34;;;16.56;100.00
36190;BME280;22232;50.914;13.858;2023-06-10T01:07:29;97686.28;;;16.65;100.00
36190;BME280;22232;50.914;13.858;2023-06-10T01:10:19;97696.78;;;16.77;100.00
36190;BME280;22232;50.914;13.858;2023-06-10T01:13:00;97694.38;;;16.80;100.00
36190;BME280;22232;50.914;13.858;2023-06-10T01:15:33;97703.50;;;16.74;100.00
36190;BME280;22232;50.914;13.858;2023-06-10T01:18:03;97700.00;;;16.68;100.00
36190;BME280;22232;50.914;13.858;2023-06-10T01:20:32;97711.03;;;16.67;100.00
36190;BME280;22232;50.914;13.858;2023-06-10T01:23:01;97707.53;;;16.61;100.00
36190;BME280;22232;50.914;13.858;2023-06-10T01:25:30;97709.72;;;16.54;100.00
36190;BME280;22232;50.914;13.858;2023-06-10T01:30:29;97703.56;;;16.43;100.00
36190;BME280;22232;50.914;13.858;2023-06-10T01:33:01;97709.47;;;16.40;100.00
36190;BME280;22232;50.914;13.858;2023-06-10T01:35:30;97705.97;;;16.40;100.00
36190;BME280;22232;50.914;13.858;2023-06-10T01:37:58;97706.50;;;16.37;100.00
36190;BME280;22232;50.914;13.858;2023-06-10T01:40:28;97707.03;;;16.39;100.00
36190;BME280;22232;50.914;13.858;2023-06-10T01:42:56;97706.25;;;16.33;100.00
36190;BME280;22232;50.914;13.858;2023-06-10T01:45:24;97712.97;;;16.31;100.00
36190;BME280;22232;50.914;13.858;2023-06-10T01:47:51;97706.22;;;16.28;100.00
36190;BME280;22232;50.914;13.858;2023-06-10T01:50:19;97705.97;;;16.24;100.00
36190;BME280;22232;50.914;13.858;2023-06-10T01:52:47;97714.31;;;16.23;100.00
36190;BME280;22232;50.914;13.858;2023-06-10T01:55:14;97706.25;;;16.18;100.00
36190;BME280;22232;50.914;13.858;2023-06-10T01:57:42;97717.81;;;16.18;100.00
36190;BME280;22232;50.914;13.858;2023-06-10T02:00:10;97716.47;;;16.16;100.00
36190;BME280;22232;50.914;13.858;2023-06-10T02:02:41;97717.00;;;16.13;100.00
36190;BME280;22232;50.914;13.858;2023-06-10T02:05:09;97714.59;;;16.11;100.00
36190;BME280;22232;50.914;13.858;2023-06-10T02:07:37;97722.66;;;16.11;100.00
36190;BME280;22232;50.914;13.858;2023-06-10T02:10:06;97722.09;;;16.09;100.00
36190;BME280;22232;50.914;13.858;2023-06-10T02:12:34;97727.50;;;16.09;100.00
36190;BME280;22232;50.914;13.858;2023-06-10T02:15:01;97729.09;;;16.15;100.00
36190;BME280;22232;50.914;13.858;2023-06-10T02:17:29;97737.72;;;16.27;100.00
36190;BME280;22232;50.914;13.858;2023-06-10T02:19:57;97734.25;;;16.32;100.00
36190;BME280;22232;50.914;13.858;2023-06-10T02:22:27;97735.31;;;16.36;100.00
36190;BME280;22232;50.914;13.858;2023-06-10T02:24:54;97738.00;;;16.41;100.00
36190;BME280;22232;50.914;13.858;2023-06-10T02:27:22;97733.72;;;16.40;100.00
36190;BME280;22232;50.914;13.858;2023-06-10T02:29:50;97742.56;;;16.36;100.00
36190;BME280;22232;50.914;13.858;2023-06-10T02:32:17;97739.09;;;16.35;100.00
36190;BME280;22232;50.914;13.858;2023-06-10T02:34:45;97741.50;;;16.37;100.00
36190;BME280;22232;50.914;13.858;2023-06-10T02:37:13;97747.41;;;16.39;100.00
36190;BME280;22232;50.914;13.858;2023-06-10T02:39:41;97744.19;;;16.37;100.00
36190;BME280;22232;50.914;13.858;2023-06-10T02:42:11;97747.16;;;16.35;100.00
36190;BME280;22232;50.914;13.858;2023-06-10T02:44:38;97752.28;;;16.26;100.00
36190;BME280;22232;50.914;13.858;2023-06-10T02:47:11;97747.97;;;16.25;100.00
36190;BME280;22232;50.914;13.858;2023-06-10T02:49:39;97743.66;;;16.24;100.00
36190;BME280;22232;50.914;13.858;2023-06-10T02:52:07;97751.47;;;16.26;100.00
36190;BME280;22232;50.914;13.858;2023-06-10T02:54:35;97740.97;;;16.29;100.00
36190;BME280;22232;50.914;13.858;2023-06-10T02:57:05;97734.50;;;16.31;100.00
36190;BME280;22232;50.914;13.858;2023-06-10T02:59:33;97745.53;;;16.24;100.00
36190;BME280;22232;50.914;13.858;2023-06-10T03:02:01;97739.63;;;16.27;100.00
36190;BME280;22232;50.914;13.858;2023-06-10T03:04:33;97738.00;;;16.31;100.00
36190;BME280;22232;50.914;13.858;2023-06-10T03:07:06;97748.22;;;16.34;100.00
36190;BME280;22232;50.914;13.858;2023-06-10T03:09:35;97743.38;;;16.51;100.00
36190;BME280;22232;50.914;13.858;2023-06-10T03:12:04;97735.31;;;16.77;100.00
36190;BME280;22232;50.914;13.858;2023-06-10T03:14:37;97739.78;;;17.12;100.00
36190;BME280;22232;50.914;13.858;2023-06-10T03:17:06;97729.13;;;17.52;100.00
36190;BME280;22232;50.914;13.858;2023-06-10T03:19:36;97733.50;;;17.92;100.00
36190;BME280;22232;50.914;13.858;2023-06-10T03:24:39;97733.59;;;18.50;100.00
36190;BME280;22232;50.914;13.858;2023-06-10T03:27:10;97731.50;;;18.71;100.00
36190;BME280;22232;50.914;13.858;2023-06-10T03:29:40;97733.94;;;19.02;100.00
36190;BME280;22232;50.914;13.858;2023-06-10T03:32:08;97723.44;;;19.43;100.00
36190;BME280;22232;50.914;13.858;2023-06-10T03:34:38;97727.66;;;19.74;100.00
36190;BME280;22232;50.914;13.858;2023-06-10T03:37:06;97733.63;;;20.08;100.00
36190;BME280;22232;50.914;13.858;2023-06-10T03:39:33;97727.03;;;20.33;100.00
36190;BME280;22232;50.914;13.858;2023-06-10T03:42:02;97738.44;;;20.49;100.00
36190;BME280;22232;50.914;13.858;2023-06-10T03:44:31;97734.53;;;20.88;100.00
36190;BME280;22232;50.914;13.858;2023-06-10T03:46:59;97733.16;;;21.18;100.00
36190;BME280;22232;50.914;13.858;2023-06-10T03:49:27;97737.28;;;21.43;100.00
36190;BME280;22232;50.914;13.858;2023-06-10T03:52:00;97740.97;;;21.61;100.00
36190;BME280;22232;50.914;13.858;2023-06-10T03:54:28;97743.13;;;21.87;100.00
36190;BME280;22232;50.914;13.858;2023-06-10T03:56:56;97748.28;;;22.25;100.00
36190;BME280;22232;50.914;13.858;2023-06-10T03:59:24;97761.06;;;22.47;100.00
36190;BME280;22232;50.914;13.858;2023-06-10T04:01:52;97756.28;;;22.75;100.00
36190;BME280;22232;50.914;13.858;2023-06-10T04:04:19;97758.63;;;22.67;100.00
36190;BME280;22232;50.914;13.858;2023-06-10T04:06:47;97757.84;;;22.08;100.00
36190;BME280;22232;50.914;13.858;2023-06-10T04:09:16;97760.34;;;21.82;100.00
36190;BME280;22232;50.914;13.858;2023-06-10T04:11:44;97759.41;;;21.87;100.00
36190;BME280;22232;50.914;13.858;2023-06-10T04:14:11;97761.69;;;22.07;100.00
36190;BME280;22232;50.914;13.858;2023-06-10T04:16:42;97766.00;;;22.22;100.00
36190;BME280;22232;50.914;13.858;2023-06-10T04:19:11;97769.06;;;22.52;100.00
36190;BME280;22232;50.914;13.858;2023-06-10T04:21:39;97765.13;;;22.35;100.00
36190;BME280;22232;50.914;13.858;2023-06-10T04:24:07;97768.00;;;22.84;100.00
36190;BME280;22232;50.914;13.858;2023-06-10T04:26:35;97762.47;;;23.29;100.00
36190;BME280;22232;50.914;13.858;2023-06-10T04:29:04;97754.66;;;23.93;92.33
36190;BME280;22232;50.914;13.858;2023-06-10T04:31:31;97758.00;;;24.34;89.76
36190;BME280;22232;50.914;13.858;2023-06-10T04:34:00;97751.44;;;24.69;87.91
36190;BME280;22232;50.914;13.858;2023-06-10T04:36:29;97764.31;;;25.16;83.43
36190;BME280;22232;50.914;13.858;2023-06-10T04:38:57;97754.56;;;25.45;78.44
36190;BME280;22232;50.914;13.858;2023-06-10T04:41:27;97752.28;;;25.47;76.89
36190;BME280;22232;50.914;13.858;2023-06-10T04:43:55;97756.25;;;25.58;75.84
36190;BME280;22232;50.914;13.858;2023-06-10T04:46:22;97759.84;;;25.71;75.04
36190;BME280;22232;50.914;13.858;2023-06-10T04:48:50;97762.94;;;25.69;75.17
36190;BME280;22232;50.914;13.858;2023-06-10T04:51:19;97755.72;;;26.15;76.41
36190;BME280;22232;50.914;13.858;2023-06-10T04:53:46;97761.53;;;26.47;71.93
36190;BME280;22232;50.914;13.858;2023-06-10T04:56:14;97756.09;;;26.80;67.96
36190;BME280;22232;50.914;13.858;2023-06-10T04:58:43;97764.47;;;27.08;61.62
36190;BME280;22232;50.914;13.858;2023-06-10T05:01:10;97765.03;;;27.02;63.20
36190;BME280;22232;50.914;13.858;2023-06-10T05:03:38;97769.06;;;26.71;64.42
36190;BME280;22232;50.914;13.858;2023-06-10T05:06:05;97763.91;;;26.57;63.58
36190;BME280;22232;50.914;13.858;2023-06-10T05:08:33;97774.06;;;26.15;68.08
36190;BME280;22232;50.914;13.858;2023-06-10T05:11:01;97768.78;;;26.09;71.49
36190;BME280;22232;50.914;13.858;2023-06-10T05:13:28;97768.28;;;24.19;93.66
36190;BME280;22232;50.914;13.858;2023-06-10T05:15:56;97770.88;;;23.50;99.60
36190;BME280;22232;50.914;13.858;2023-06-10T05:18:23;97781.56;;;22.98;98.45
36190;BME280;22232;50.914;13.858;2023-06-10T05:20:51;97779.81;;;23.02;98.41
36190;BME280;22232;50.914;13.858;2023-06-10T05:23:21;97773.31;;;22.66;100.00
36190;BME280;22232;50.914;13.858;2023-06-10T05:25:48;97782.88;;;23.09;100.00
36190;BME280;22232;50.914;13.858;2023-06-10T05:28:16;97779.50;;;23.52;98.95
36190;BME280;22232;50.914;13.858;2023-06-10T05:30:43;97779.63;;;23.87;90.92
36190;BME280;22232;50.914;13.858;2023-06-10T05:33:11;97785.22;;;23.81;81.11
36190;BME280;22232;50.914;13.858;2023-06-10T05:35:38;97789.44;;;23.96;81.63
36190;BME280;22232;50.914;13.858;2023-06-10T05:38:06;97782.72;;;24.20;88.25
36190;BME280;22232;50.914;13.858;2023-06-10T05:40:34;97781.94;;;24.45;85.28
36190;BME280;22232;50.914;13.858;2023-06-10T05:43:02;97783.66;;;24.59;79.79
36190;BME280;22232;50.914;13.858;2023-06-10T05:45:29;97782.63;;;24.98;73.21
36190;BME280;22232;50.914;13.858;2023-06-10T05:47:57;97785.94;;;25.30;66.01
36190;BME280;22232;50.914;13.858;2023-06-10T05:50:25;97783.44;;;25.46;65.49
36190;BME280;22232;50.914;13.858;2023-06-10T05:52:53;97787.31;;;24.80;72.59
36190;BME280;22232;50.914;13.858;2023-06-10T05:55:22;97791.69;;;24.81;73.27
36190;BME280;22232;50.914;13.858;2023-06-10T05:57:58;97784.41;;;24.94;74.51
36190;BME280;22232;50.914;13.858;2023-06-10T06:00:26;97787.16;;;24.94;77.75
36190;BME280;22232;50.914;13.858;2023-06-10T06:02:54;97788.88;;;25.07;72.03
36190;BME280;22232;50.914;13.858;2023-06-10T06:05:22;97787.13;;;25.03;74.00
36190;BME280;22232;50.914;13.858;2023-06-10T06:07:50;97784.66;;;25.27;75.34
36190;BME280;22232;50.914;13.858;2023-06-10T06:10:18;97785.41;;;24.81;75.74
36190;BME280;22232;50.914;13.858;2023-06-10T06:12:46;97789.78;;;25.29;74.48
36190;BME280;22232;50.914;13.858;2023-06-10T06:15:13;97792.84;;;25.27;69.82
36190;BME280;22232;50.914;13.858;2023-06-10T06:17:41;97786.88;;;25.34;74.51
36190;BME280;22232;50.914;13.858;2023-06-10T06:20:09;97779.56;;;25.08;75.88
36190;BME280;22232;50.914;13.858;2023-06-10T06:22:36;97788.31;;;25.31;76.05
36190;BME280;22232;50.914;13.858;2023-06-10T06:25:04;97797.63;;;25.39;75.77
36190;BME280;22232;50.914;13.858;2023-06-10T06:27:33;97797.16;;;24.20;78.49
36190;BME280;22232;50.914;13.858;2023-06-10T06:30:00;97796.50;;;23.57;93.17
36190;BME280;22232;50.914;13.858;2023-06-10T06:32:28;97802.47;;;23.68;93.51
36190;BME280;22232;50.914;13.858;2023-06-10T06:34:56;97791.84;;;23.49;97.13
36190;BME280;22232;50.914;13.858;2023-06-10T06:37:25;97806.81;;;22.53;96.41
36190;BME280;22232;50.914;13.858;2023-06-10T06:40:06;97808.72;;;21.52;100.00
36190;BME280;22232;50.914;13.858;2023-06-10T06:42:34;97812.94;;;20.52;100.00
36190;BME280;22232;50.914;13.858;2023-06-10T06:45:14;97823.16;;;20.17;100.00
36190;BME280;22232;50.914;13.858;2023-06-10T06:47:42;97827.44;;;19.99;100.00
36190;BME280;22232;50.914;13.858;2023-06-10T06:50:10;97830.03;;;19.90;100.00
36190;BME280;22232;50.914;13.858;2023-06-10T06:52:38;97833.03;;;19.65;100.00
36190;BME280;22232;50.914;13.858;2023-06-10T06:55:06;97830.78;;;19.48;100.00
36190;BME280;22232;50.914;13.858;2023-06-10T06:57:34;97834.47;;;19.81;100.00
36190;BME280;22232;50.914;13.858;2023-06-10T07:00:02;97841.50;;;20.01;100.00
36190;BME280;22232;50.914;13.858;2023-06-10T07:02:30;97845.16;;;19.91;100.00
36190;BME280;22232;50.914;13.858;2023-06-10T07:04:59;97850.53;;;19.73;100.00
36190;BME280;22232;50.914;13.858;2023-06-10T07:07:27;97842.63;;;19.52;100.00
36190;BME280;22232;50.914;13.858;2023-06-10T07:09:54;97851.88;;;19.46;100.00
36190;BME280;22232;50.914;13.858;2023-06-10T07:12:22;97862.13;;;19.49;100.00
36190;BME280;22232;50.914;13.858;2023-06-10T07:14:51;97863.47;;;19.22;100.00
36190;BME280;22232;50.914;13.858;2023-06-10T07:17:18;97856.00;;;19.14;100.00
36190;BME280;22232;50.914;13.858;2023-06-10T07:19:46;97866.84;;;19.09;100.00
36190;BME280;22232;50.914;13.858;2023-06-10T07:22:14;97863.28;;;19.14;100.00
36190;BME280;22232;50.914;13.858;2023-06-10T07:24:42;97859.16;;;18.92;100.00
36190;BME280;22232;50.914;13.858;2023-06-10T07:27:09;97859.78;;;18.84;100.00
36190;BME280;22232;50.914;13.858;2023-06-10T07:29:37;97864.91;;;19.15;100.00
36190;BME280;22232;50.914;13.858;2023-06-10T07:32:05;97874.09;;;19.14;100.00
36190;BME280;22232;50.914;13.858;2023-06-10T07:34:32;97883.53;;;19.16;100.00
36190;BME280;22232;50.914;13.858;2023-06-10T07:37:00;97882.41;;;19.22;100.00
36190;BME280;22232;50.914;13.858;2023-06-10T07:39:28;97887.09;;;19.41;100.00
36190;BME280;22232;50.914;13.858;2023-06-10T07:41:55;97884.34;;;19.17;100.00
36190;BME280;22232;50.914;13.858;2023-06-10T07:44:25;97888.47;;;19.38;100.00
36190;BME280;22232;50.914;13.858;2023-06-10T07:46:52;97890.59;;;19.41;100.00
36190;BME280;22232;50.914;13.858;2023-06-10T07:49:20;97891.31;;;19.52;100.00
36190;BME280;22232;50.914;13.858;2023-06-10T07:51:48;97891.94;;;19.44;100.00
36190;BME280;22232;50.914;13.858;2023-06-10T07:54:15;97898.63;;;19.52;100.00
36190;BME280;22232;50.914;13.858;2023-06-10T07:56:44;97903.63;;;19.39;100.00
36190;BME280;22232;50.914;13.858;2023-06-10T07:59:11;97900.56;;;19.17;100.00
36190;BME280;22232;50.914;13.858;2023-06-10T08:01:39;97891.75;;;19.06;100.00
36190;BME280;22232;50.914;13.858;2023-06-10T08:04:07;97895.81;;;18.64;100.00
36190;BME280;22232;50.914;13.858;2023-06-10T08:06:35;97894.69;;;18.75;100.00
36190;BME280;22232;50.914;13.858;2023-06-10T08:09:04;97897.44;;;18.65;100.00
36190;BME280;22232;50.914;13.858;2023-06-10T08:11:32;97900.66;;;18.67;100.00
36190;BME280;22232;50.914;13.858;2023-06-10T08:14:00;97905.16;;;18.87;100.00
36190;BME280;22232;50.914;13.858;2023-06-10T08:16:28;97900.34;;;19.13;100.00
36190;BME280;22232;50.914;13.858;2023-06-10T08:18:56;97905.19;;;19.45;100.00
36190;BME280;22232;50.914;13.858;2023-06-10T08:21:23;97908.63;;;19.80;100.00
36190;BME280;22232;50.914;13.858;2023-06-10T08:23:54;97900.81;;;20.22;100.00
36190;BME280;22232;50.914;13.858;2023-06-10T08:26:23;97898.44;;;20.77;100.00
36190;BME280;22232;50.914;13.858;2023-06-10T08:28:50;97897.09;;;21.59;100.00
36190;BME280;22232;50.914;13.858;2023-06-10T08:31:18;97900.56;;;22.78;100.00
36190;BME280;22232;50.914;13.858;2023-06-10T08:33:45;97889.69;;;23.86;100.00
36190;BME280;22232;50.914;13.858;2023-06-10T08:36:13;97884.69;;;24.27;100.00
36190;BME280;22232;50.914;13.858;2023-06-10T08:38:40;97887.38;;;24.01;100.00
36190;BME280;22232;50.914;13.858;2023-06-10T08:41:09;97889.78;;;24.12;100.00
36190;BME280;22232;50.914;13.858;2023-06-10T08:43:46;97889.78;;;24.12;100.00
36190;BME280;22232;50.914;13.858;2023-06-10T08:46:15;97894.16;;;24.30;100.00
36190;BME280;22232;50.914;13.858;2023-06-10T08:48:44;97893.81;;;24.40;100.00
36190;BME280;22232;50.914;13.858;2023-06-10T08:51:13;97884.72;;;24.80;100.00
36190;BME280;22232;50.914;13.858;2023-06-10T08:53:50;97885.88;;;24.79;100.00
36190;BME280;22232;50.914;13.858;2023-06-10T08:56:21;97887.41;;;24.27;100.00
36190;BME280;22232;50.914;13.858;2023-06-10T08:58:54;97884.47;;;23.67;100.00
36190;BME280;22232;50.914;13.858;2023-06-10T09:01:24;97885.28;;;23.67;100.00
36190;BME280;22232;50.914;13.858;2023-06-10T09:03:53;97879.66;;;23.64;100.00
36190;BME280;22232;50.914;13.858;2023-06-10T09:06:22;97880.81;;;23.40;100.00
36190;BME280;22232;50.914;13.858;2023-06-10T09:08:50;97882.00;;;23.48;100.00
36190;BME280;22232;50.914;13.858;2023-06-10T09:11:18;97876.16;;;23.32;100.00
36190;BME280;22232;50.914;13.858;2023-06-10T09:13:45;97879.44;;;23.51;100.00
36190;BME280;22232;50.914;13.858;2023-06-10T09:16:13;97879.81;;;23.67;100.00
36190;BME280;22232;50.914;13.858;2023-06-10T09:18:41;97880.28;;;23.61;100.00
36190;BME280;22232;50.914;13.858;2023-06-10T09:21:09;97895.97;;;23.86;100.00
36190;BME280;22232;50.914;13.858;2023-06-10T09:23:37;97886.72;;;24.13;100.00
36190;BME280;22232;50.914;13.858;2023-06-10T09:26:08;97891.81;;;24.72;100.00
36190;BME280;22232;50.914;13.858;2023-06-10T09:28:37;97888.75;;;25.64;100.00
36190;BME280;22232;50.914;13.858;2023-06-10T09:31:06;97887.25;;;26.14;98.40
36190;BME280;22232;50.914;13.858;2023-06-10T09:33:38;97889.59;;;26.03;93.16
36190;BME280;22232;50.914;13.858;2023-06-10T09:36:07;97886.66;;;26.59;94.50
36190;BME280;22232;50.914;13.858;2023-06-10T09:38:35;97893.72;;;26.60;80.51
36190;BME280;22232;50.914;13.858;2023-06-10T09:41:03;97895.13;;;26.45;86.75
36190;BME280;22232;50.914;13.858;2023-06-10T09:43:44;97896.56;;;26.42;98.42
36190;BME280;22232;50.914;13.858;2023-06-10T09:46:18;97897.84;;;25.85;97.89
36190;BME280;22232;50.914;13.858;2023-06-10T09:48:47;97893.88;;;26.13;95.24
36190;BME280;22232;50.914;13.858;2023-06-10T09:51:15;97892.22;;;25.91;99.18
36190;BME280;22232;50.914;13.858;2023-06-10T09:53:51;97892.78;;;25.58;100.00
36190;BME280;22232;50.914;13.858;2023-06-10T09:56:19;97894.06;;;25.69;90.03
36190;BME280;22232;50.914;13.858;2023-06-10T09:58:46;97896.09;;;25.81;91.35
36190;BME280;22232;50.914;13.858;2023-06-10T10:01:15;97895.16;;;25.68;88.14
36190;BME280;22232;50.914;13.858;2023-06-10T10:03:49;97892.44;;;26.06;88.50
36190;BME280;22232;50.914;13.858;2023-06-10T10:06:18;97900.09;;;25.83;83.89
36190;BME280;22232;50.914;13.858;2023-06-10T10:08:49;97906.56;;;24.97;98.64
36190;BME280;22232;50.914;13.858;2023-06-10T10:11:20;97909.91;;;24.68;100.00
36190;BME280;22232;50.914;13.858;2023-06-10T10:13:50;97906.72;;;24.66;95.36
36190;BME280;22232;50.914;13.858;2023-06-10T10:16:32;97901.00;;;24.19;100.00
36190;BME280;22232;50.914;13.858;2023-06-10T10:19:04;97900.69;;;24.12;100.00
36190;BME280;22232;50.914;13.858;2023-06-10T10:21:38;97902.06;;;24.75;100.00
36190;BME280;22232;50.914;13.858;2023-06-10T10:24:17;97902.38;;;24.82;98.19
36190;BME280;22232;50.914;13.858;2023-06-10T10:26:47;97892.25;;;25.09;99.41
36190;BME280;22232;50.914;13.858;2023-06-10T10:31:56;97893.56;;;25.67;94.56
36190;BME280;22232;50.914;13.858;2023-06-10T10:34:43;97894.22;;;25.17;95.13
36190;BME280;22232;50.914;13.858;2023-06-10T10:37:14;97891.09;;;25.45;93.43
36190;BME280;22232;50.914;13.858;2023-06-10T10:39:41;97889.25;;;25.66;88.70
36190;BME280;22232;50.914;13.858;2023-06-10T10:42:09;97891.91;;;25.28;100.00
36190;BME280;22232;50.914;13.858;2023-06-10T10:44:38;97901.44;;;24.78;95.45
36190;BME280;22232;50.914;13.858;2023-06-10T10:47:08;97898.38;;;24.97;78.37
36190;BME280;22232;50.914;13.858;2023-06-10T10:49:37;97891.47;;;25.17;83.79
36190;BME280;22232;50.914;13.858;2023-06-10T10:52:11;97888.41;;;25.01;95.57
36190;BME280;22232;50.914;13.858;2023-06-10T10:54:43;97890.75;;;25.37;94.64
36190;BME280;22232;50.914;13.858;2023-06-10T10:57:21;97892.03;;;25.40;90.97
36190;BME280;22232;50.914;13.858;2023-06-10T11:05:00;97902.69;;;24.46;77.85
36190;BME280;22232;50.914;13.858;2023-06-10T11:07:32;97897.25;;;24.72;67.95
36190;BME280;22232;50.914;13.858;2023-06-10T11:10:07;97872.88;;;24.84;79.76
36190;BME280;22232;50.914;13.858;2023-06-10T11:12:54;97881.00;;;25.10;79.00
36190;BME280;22232;50.914;13.858;2023-06-10T11:15:27;97886.50;;;24.84;67.75
36190;BME280;22232;50.914;13.858;2023-06-10T11:18:14;97883.94;;;24.62;75.83
36190;BME280;22232;50.914;13.858;2023-06-10T11:31:20;97860.66;;;24.90;79.46
36190;BME280;22232;50.914;13.858;2023-06-10T11:33:52;97855.22;;;24.73;87.10
36190;BME280;22232;50.914;13.858;2023-06-10T11:36:21;97850.03;;;24.98;77.24
36190;BME280;22232;50.914;13.858;2023-06-10T11:38:50;97845.44;;;24.89;73.57
36190;BME280;22232;50.914;13.858;2023-06-10T11:41:20;97850.75;;;24.68;72.98
36190;BME280;22232;50.914;13.858;2023-06-10T11:43:48;97862.09;;;24.70;74.11
36190;BME280;22232;50.914;13.858;2023-06-10T11:46:15;97848.81;;;24.69;74.37
36190;BME280;22232;50.914;13.858;2023-06-10T11:48:54;97856.97;;;24.43;74.74
36190;BME280;22232;50.914;13.858;2023-06-10T11:51:24;97864.88;;;24.53;76.56
36190;BME280;22232;50.914;13.858;2023-06-10T11:53:53;97851.03;;;24.58;79.14
36190;BME280;22232;50.914;13.858;2023-06-10T11:56:22;97865.50;;;24.50;76.21
36190;BME280;22232;50.914;13.858;2023-06-10T11:58:55;97873.28;;;24.08;81.74
36190;BME280;22232;50.914;13.858;2023-06-10T12:01:25;97852.75;;;24.11;84.47
36190;BME280;22232;50.914;13.858;2023-06-10T12:03:57;97871.03;;;24.19;74.98
36190;BME280;22232;50.914;13.858;2023-06-10T12:06:25;97848.91;;;24.12;83.29
36190;BME280;22232;50.914;13.858;2023-06-10T12:08:54;97857.00;;;23.77;84.74
36190;BME280;22232;50.914;13.858;2023-06-10T12:11:36;97853.69;;;23.97;82.90
36190;BME280;22232;50.914;13.858;2023-06-10T12:14:04;97839.69;;;24.47;82.88
36190;BME280;22232;50.914;13.858;2023-06-10T12:16:31;97848.81;;;24.69;64.88
36190;BME280;22232;50.914;13.858;2023-06-10T12:19:04;97847.03;;;24.38;64.38
36190;BME280;22232;50.914;13.858;2023-06-10T12:21:33;97860.16;;;24.27;65.66
36190;BME280;22232;50.914;13.858;2023-06-10T12:24:09;97847.47;;;24.14;72.35
36190;BME280;22232;50.914;13.858;2023-06-10T12:26:44;97853.41;;;24.34;70.09
36190;BME280;22232;50.914;13.858;2023-06-10T12:31:59;97849.69;;;24.12;70.26
36190;BME280;22232;50.914;13.858;2023-06-10T12:34:36;97852.06;;;23.88;66.75
36190;BME280;22232;50.914;13.858;2023-06-10T12:37:13;97840.59;;;24.17;72.25
36190;BME280;22232;50.914;13.858;2023-06-10T12:39:41;97871.28;;;23.91;64.61
36190;BME280;22232;50.914;13.858;2023-06-10T12:42:11;97843.59;;;24.07;68.47
36190;BME280;22232;50.914;13.858;2023-06-10T12:44:40;97832.69;;;24.07;70.34
36190;BME280;22232;50.914;13.858;2023-06-10T12:47:13;97825.50;;;24.19;67.25
36190;BME280;22232;50.914;13.858;2023-06-10T12:49:40;97816.56;;;24.45;62.29
36190;BME280;22232;50.914;13.858;2023-06-10T12:52:08;97827.94;;;24.56;57.62
36190;BME280;22232;50.914;13.858;2023-06-10T12:54:35;97827.28;;;24.24;62.03
36190;BME280;22232;50.914;13.858;2023-06-10T12:57:03;97832.41;;;24.17;62.69
36190;BME280;22232;50.914;13.858;2023-06-10T12:59:31;97811.78;;;24.51;63.58
36190;BME280;22232;50.914;13.858;2023-06-10T13:01:59;97816.09;;;24.69;62.35
36190;BME280;22232;50.914;13.858;2023-06-10T13:04:27;97819.31;;;24.62;59.16
36190;BME280;22232;50.914;13.858;2023-06-10T13:06:54;97825.22;;;24.56;60.39
36190;BME280;22232;50.914;13.858;2023-06-10T13:09:22;97821.84;;;24.41;63.63
36190;BME280;22232;50.914;13.858;2023-06-10T13:11:50;97826.16;;;24.25;62.73
36190;BME280;22232;50.914;13.858;2023-06-10T13:14:17;97826.19;;;24.51;62.38
36190;BME280;22232;50.914;13.858;2023-06-10T13:16:45;97811.72;;;24.68;64.77
36190;BME280;22232;50.914;13.858;2023-06-10T13:19:13;97814.66;;;24.54;58.15